createdAt,value
2019-06-01T00:01:32.582Z,68.94
2019-06-01T00:04:04.885Z,69.08
2019-06-01T00:06:37.161Z,69.22
2019-06-01T00:09:09.326Z,69.05
2019-06-01T00:11:41.585Z,69.09
2019-06-01T00:14:15.415Z,69.18
2019-06-01T00:16:48.010Z,69.39
2019-06-01T00:19:20.358Z,69.31
2019-06-01T00:21:52.767Z,69.40
2019-06-01T00:24:25.060Z,69.36
2019-06-01T00:26:57.351Z,69.41
2019-06-01T00:29:29.618Z,69.51
2019-06-01T00:32:01.864Z,69.36
2019-06-01T00:34:34.255Z,69.37
2019-06-01T00:37:06.566Z,69.44
2019-06-01T00:39:38.886Z,69.50
2019-06-01T00:42:11.113Z,69.52
2019-06-01T00:44:44.310Z,69.59
2019-06-01T00:47:16.642Z,69.75
2019-06-01T00:49:48.902Z,69.58
2019-06-01T00:52:21.084Z,69.78
2019-06-01T00:54:53.687Z,69.83
2019-06-01T00:57:25.980Z,69.83
2019-06-01T00:59:58.257Z,69.83
2019-06-01T01:02:30.503Z,70.01
2019-06-01T01:05:02.776Z,69.81
2019-06-01T01:07:38.194Z,69.82
2019-06-01T01:10:10.304Z,69.79
2019-06-01T01:12:42.656Z,70.15
2019-06-01T01:15:14.930Z,70.04
2019-06-01T01:17:47.859Z,70.15
2019-06-01T01:20:20.093Z,69.84
2019-06-01T01:22:52.553Z,69.87
2019-06-01T01:25:24.765Z,69.63
2019-06-01T01:27:57.146Z,69.92
2019-06-01T01:30:29.571Z,70.35
2019-06-01T01:33:01.800Z,69.84
2019-06-01T01:35:35.125Z,70.05
2019-06-01T01:38:07.339Z,69.97
2019-06-01T01:40:39.575Z,70.26
2019-06-01T01:43:11.647Z,70.02
2019-06-01T01:45:43.896Z,70.13
2019-06-01T01:48:16.096Z,70.39
2019-06-01T01:50:48.417Z,70.56
2019-06-01T01:53:20.681Z,70.21
2019-06-01T01:55:53.018Z,70.33
2019-06-01T01:58:25.296Z,70.10
2019-06-01T02:00:58.480Z,70.38
2019-06-01T02:03:31.654Z,70.39
2019-06-01T02:06:03.909Z,70.43
2019-06-01T02:08:36.109Z,70.39
2019-06-01T02:11:08.360Z,70.37
2019-06-01T02:13:40.605Z,70.75
2019-06-01T02:16:12.611Z,70.54
2019-06-01T02:18:44.827Z,70.54
2019-06-01T02:21:17.060Z,70.81
2019-06-01T02:23:49.468Z,70.86
2019-06-01T02:26:21.669Z,70.87
2019-06-01T02:28:55.210Z,70.95
2019-06-01T02:31:40.895Z,71.05
2019-06-01T02:34:05.310Z,71.13
2019-06-01T02:36:35.733Z,71.10
2019-06-01T02:39:07.940Z,71.32
2019-06-01T02:41:40.155Z,71.40
2019-06-01T02:44:13.382Z,71.37
2019-06-01T02:46:45.604Z,71.49
2019-06-01T02:49:17.836Z,71.64
2019-06-01T02:51:50.102Z,71.51
2019-06-01T02:54:22.384Z,71.67
2019-06-01T02:56:55.774Z,71.79
2019-06-01T02:59:28.274Z,71.79
2019-06-01T03:02:07.312Z,72.22
2019-06-01T03:04:34.426Z,72.42
2019-06-01T03:07:07.471Z,72.55
2019-06-01T03:09:40.758Z,72.53
2019-06-01T03:12:12.961Z,72.37
2019-06-01T03:14:45.177Z,72.43
2019-06-01T03:17:17.441Z,72.33
2019-06-01T03:19:49.672Z,72.40
2019-06-01T03:22:21.870Z,72.42
2019-06-01T03:24:54.116Z,72.41
2019-06-01T03:27:26.339Z,72.59
2019-06-01T03:29:58.580Z,72.90
2019-06-01T03:32:36.637Z,72.62
2019-06-01T03:35:04.729Z,72.40
2019-06-01T03:37:36.966Z,72.45
2019-06-01T03:40:15.942Z,72.54
2019-06-01T03:42:43.138Z,72.53
2019-06-01T03:45:15.321Z,72.58
2019-06-01T03:47:47.703Z,72.66
2019-06-01T03:50:21.014Z,72.77
2019-06-01T03:52:53.208Z,72.65
2019-06-01T03:55:26.557Z,72.66
2019-06-01T03:57:58.752Z,72.71
2019-06-01T04:00:31.635Z,72.80
2019-06-01T04:03:04.984Z,73.00
2019-06-01T04:05:37.316Z,73.32
2019-06-01T04:08:09.759Z,72.91
2019-06-01T04:10:42.068Z,72.79
2019-06-01T04:13:14.321Z,73.13
2019-06-01T04:15:46.584Z,73.13
2019-06-01T04:18:18.819Z,72.98
2019-06-01T04:20:51.060Z,72.86
2019-06-01T04:23:23.291Z,72.76
2019-06-01T04:25:55.673Z,72.59
2019-06-01T04:28:27.886Z,72.38
2019-06-01T04:31:00.094Z,72.28
2019-06-01T04:33:32.164Z,72.12
2019-06-01T04:36:04.867Z,71.89
2019-06-01T04:38:37.229Z,71.54
2019-06-01T04:41:09.778Z,71.32
2019-06-01T04:43:43.122Z,71.22
2019-06-01T04:46:15.368Z,71.02
2019-06-01T04:48:47.596Z,70.83
2019-06-01T04:51:19.776Z,70.84
2019-06-01T04:53:52.047Z,70.32
2019-06-01T04:56:24.277Z,70.21
2019-06-01T04:58:56.543Z,70.32
2019-06-01T05:01:28.769Z,70.44
2019-06-01T05:04:01.028Z,70.52
2019-06-01T05:06:33.263Z,70.17
2019-06-01T05:09:07.590Z,69.81
2019-06-01T05:11:39.838Z,69.31
2019-06-01T05:14:12.050Z,69.67
2019-06-01T05:16:44.630Z,69.18
2019-06-01T05:19:16.880Z,69.14
2019-06-01T05:21:49.203Z,68.71
2019-06-01T05:24:21.421Z,68.76
2019-06-01T05:26:53.753Z,68.29
2019-06-01T05:29:25.984Z,68.79
2019-06-01T05:31:58.205Z,68.10
2019-06-01T05:34:30.450Z,67.80
2019-06-01T05:37:02.653Z,67.81
2019-06-01T05:39:34.919Z,67.75
2019-06-01T05:42:08.798Z,67.70
2019-06-01T05:44:41.315Z,67.33
2019-06-01T05:47:14.254Z,67.33
2019-06-01T05:49:47.792Z,67.39
2019-06-01T05:52:20.081Z,67.44
2019-06-01T05:54:54.571Z,67.61
2019-06-01T05:57:26.842Z,66.96
2019-06-01T05:59:59.115Z,66.98
2019-06-01T06:02:31.408Z,66.97
2019-06-01T06:05:03.633Z,67.16
2019-06-01T06:07:35.903Z,67.19
2019-06-01T06:10:08.187Z,67.12
2019-06-01T06:12:40.521Z,66.94
2019-06-01T06:15:13.508Z,66.17
2019-06-01T06:17:45.990Z,65.93
2019-06-01T06:20:18.206Z,65.71
2019-06-01T06:22:50.425Z,65.29
2019-06-01T06:25:22.676Z,64.88
2019-06-01T06:27:54.900Z,64.45
2019-06-01T06:30:27.171Z,64.97
2019-06-01T06:32:59.435Z,64.70
2019-06-01T06:35:31.738Z,64.60
2019-06-01T06:38:03.928Z,64.70
2019-06-01T06:40:36.205Z,64.78
2019-06-01T06:43:19.321Z,64.25
2019-06-01T06:45:43.512Z,63.79
2019-06-01T06:48:16.876Z,63.48
2019-06-01T06:50:49.324Z,63.22
2019-06-01T06:53:29.877Z,63.18
2019-06-01T06:55:56.004Z,63.09
2019-06-01T06:58:28.330Z,62.51
2019-06-01T07:01:00.740Z,61.82
2019-06-01T07:03:32.825Z,61.88
2019-06-01T07:06:05.138Z,62.23
2019-06-01T07:08:37.351Z,62.13
2019-06-01T07:11:11.922Z,62.15
2019-06-01T07:13:43.732Z,62.39
2019-06-01T07:16:15.959Z,62.57
2019-06-01T07:18:49.368Z,62.53
2019-06-01T07:21:23.771Z,62.77
2019-06-01T07:23:56.261Z,62.59
2019-06-01T07:26:28.448Z,62.91
2019-06-01T07:29:00.730Z,62.45
2019-06-01T07:31:32.968Z,62.27
2019-06-01T07:34:05.194Z,62.13
2019-06-01T07:36:37.504Z,62.12
2019-06-01T07:39:09.742Z,61.92
2019-06-01T07:41:42.099Z,61.48
2019-06-01T07:44:14.323Z,61.47
2019-06-01T07:46:46.540Z,61.35
2019-06-01T07:49:18.745Z,60.82
2019-06-01T07:51:51.045Z,61.54
2019-06-01T07:54:24.752Z,60.88
2019-06-01T07:56:57.198Z,60.78
2019-06-01T07:59:31.054Z,60.38
2019-06-01T08:02:04.679Z,61.00
2019-06-01T08:04:52.398Z,60.58
2019-06-01T08:07:11.109Z,60.08
2019-06-01T08:09:43.304Z,60.03
2019-06-01T08:12:15.547Z,59.62
2019-06-01T08:14:47.800Z,59.66
2019-06-01T08:17:20.007Z,59.76
2019-06-01T08:19:52.281Z,59.38
2019-06-01T08:22:24.523Z,59.31
2019-06-01T08:24:59.105Z,58.93
2019-06-01T08:27:32.612Z,58.79
2019-06-01T08:30:05.008Z,58.89
2019-06-01T08:32:37.369Z,58.77
2019-06-01T08:35:12.584Z,58.70
2019-06-01T08:37:44.803Z,57.74
2019-06-01T08:40:19.211Z,57.88
2019-06-01T08:42:51.625Z,57.87
2019-06-01T08:45:25.488Z,57.79
2019-06-01T08:47:57.682Z,57.36
2019-06-01T08:50:29.966Z,57.50
2019-06-01T08:53:02.339Z,56.73
2019-06-01T08:55:34.993Z,56.78
2019-06-01T08:58:07.324Z,56.75
2019-06-01T09:00:39.719Z,56.73
2019-06-01T09:03:12.011Z,56.71
2019-06-01T09:05:44.239Z,55.45
2019-06-01T09:08:16.450Z,54.50
2019-06-01T09:10:48.696Z,55.42
2019-06-01T09:13:20.957Z,54.96
2019-06-01T09:15:53.385Z,54.85
2019-06-01T09:18:25.775Z,54.25
2019-06-01T09:20:58.304Z,54.97
2019-06-01T09:23:31.597Z,54.77
2019-06-01T09:26:03.987Z,54.57
2019-06-01T09:28:36.359Z,53.84
2019-06-01T09:31:08.574Z,53.84
2019-06-01T09:33:40.890Z,53.38
2019-06-01T09:36:13.111Z,53.38
2019-06-01T09:38:45.443Z,53.12
2019-06-01T09:41:17.920Z,52.86
2019-06-01T09:43:50.520Z,52.97
2019-06-01T09:46:22.755Z,52.88
2019-06-01T09:48:54.897Z,52.27
2019-06-01T09:51:27.388Z,52.27
2019-06-01T09:53:59.696Z,52.02
2019-06-01T09:56:33.999Z,51.27
2019-06-01T09:59:05.978Z,51.27
2019-06-01T10:01:38.864Z,51.16
2019-06-01T10:04:11.346Z,50.47
2019-06-01T10:06:43.683Z,50.06
2019-06-01T10:09:15.901Z,49.85
2019-06-01T10:11:48.116Z,50.35
2019-06-01T10:14:20.191Z,49.80
2019-06-01T10:16:52.404Z,49.30
2019-06-01T10:19:24.626Z,48.63
2019-06-01T10:21:56.890Z,49.86
2019-06-01T10:24:29.118Z,49.86
2019-06-01T10:27:01.393Z,49.23
2019-06-01T10:29:34.753Z,49.94
2019-06-01T10:32:07.023Z,48.59
2019-06-01T10:34:39.885Z,47.83
2019-06-01T10:37:13.934Z,48.81
2019-06-01T10:39:46.153Z,49.06
2019-06-01T10:42:18.438Z,48.02
2019-06-01T10:44:50.699Z,48.26
2019-06-01T10:47:22.869Z,47.87
2019-06-01T10:49:55.163Z,46.91
2019-06-01T10:52:27.439Z,46.45
2019-06-01T10:54:59.665Z,45.40
2019-06-01T10:57:32.326Z,46.27
2019-06-01T11:00:04.784Z,45.30
2019-06-01T11:02:37.118Z,44.39
2019-06-01T11:05:09.684Z,44.60
2019-06-01T11:07:43.101Z,45.02
2019-06-01T11:10:15.596Z,44.77
2019-06-01T11:12:47.907Z,44.34
2019-06-01T11:15:20.229Z,45.03
2019-06-01T11:17:52.448Z,44.92
2019-06-01T11:20:24.669Z,45.06
2019-06-01T11:22:56.968Z,44.57
2019-06-01T11:25:29.276Z,44.23
2019-06-01T11:28:01.423Z,44.02
2019-06-01T11:30:33.632Z,43.89
2019-06-01T11:33:06.126Z,43.51
2019-06-01T11:35:39.209Z,42.93
2019-06-01T11:38:12.588Z,42.31
2019-06-01T11:40:45.968Z,42.39
2019-06-01T11:43:18.252Z,41.37
2019-06-01T11:45:50.471Z,41.33
2019-06-01T11:48:22.862Z,39.66
2019-06-01T11:50:55.109Z,39.75
2019-06-01T11:53:27.328Z,39.32
2019-06-01T11:56:00.164Z,35.00
2019-06-01T11:58:32.939Z,31.54
2019-06-01T12:01:05.777Z,29.02
2019-06-01T12:03:39.917Z,27.29
2019-06-01T12:06:12.729Z,25.52
2019-06-01T12:08:46.389Z,24.63
2019-06-01T12:11:19.323Z,23.02
2019-06-01T12:13:52.149Z,21.69
2019-06-01T12:16:24.975Z,21.60
2019-06-01T12:18:57.765Z,21.28
2019-06-01T12:21:30.591Z,20.86
2019-06-01T12:24:03.448Z,21.55
2019-06-01T12:26:37.228Z,21.55
2019-06-01T12:29:10.191Z,21.44
2019-06-01T12:31:43.806Z,21.44
2019-06-01T12:34:16.865Z,19.62
2019-06-01T12:36:49.675Z,19.62
2019-06-01T12:39:22.444Z,20.21
2019-06-01T12:41:55.259Z,19.67
2019-06-01T12:44:28.051Z,19.52
2019-06-01T12:47:00.871Z,18.47
2019-06-01T12:49:33.731Z,18.23
2019-06-01T12:52:06.513Z,18.31
2019-06-01T12:54:40.382Z,18.35
2019-06-01T12:57:13.244Z,19.15
2019-06-01T12:59:47.001Z,19.25
2019-06-01T13:02:19.876Z,18.12
2019-06-01T13:04:53.254Z,18.65
2019-06-01T13:07:25.905Z,17.29
2019-06-01T13:09:58.454Z,16.62
2019-06-01T13:12:31.016Z,15.94
2019-06-01T13:15:03.558Z,16.07
2019-06-01T13:17:36.122Z,16.80
2019-06-01T13:20:08.622Z,15.83
2019-06-01T13:22:41.354Z,15.72
2019-06-01T13:25:13.843Z,15.37
2019-06-01T13:27:46.532Z,16.00
2019-06-01T13:30:19.185Z,16.09
2019-06-01T13:32:53.720Z,16.15
2019-06-01T13:35:26.052Z,14.90
2019-06-01T13:38:11.714Z,15.39
2019-06-01T13:40:32.844Z,15.86
2019-06-01T13:43:05.442Z,16.58
2019-06-01T13:45:37.975Z,16.55
2019-06-01T13:48:10.498Z,15.94
2019-06-01T13:50:43.548Z,15.25
2019-06-01T13:53:16.215Z,14.58
2019-06-01T13:55:48.708Z,15.90
2019-06-01T13:58:21.244Z,15.61
2019-06-01T14:00:54.895Z,16.38
2019-06-01T14:03:27.497Z,15.23
2019-06-01T14:06:01.093Z,16.29
2019-06-01T14:08:34.004Z,18.42
2019-06-01T14:11:06.846Z,21.43
2019-06-01T14:13:39.497Z,21.43
2019-06-01T14:16:12.375Z,24.06
2019-06-01T14:18:45.618Z,25.31
2019-06-01T14:21:18.669Z,28.12
2019-06-01T14:23:53.933Z,29.37
2019-06-01T14:26:28.093Z,30.38
2019-06-01T14:29:00.903Z,31.57
2019-06-01T14:31:33.711Z,32.49
2019-06-01T14:34:06.508Z,33.18
2019-06-01T14:36:38.958Z,34.19
2019-06-01T14:39:11.327Z,34.62
2019-06-01T14:41:43.624Z,33.49
2019-06-01T14:44:15.925Z,34.12
2019-06-01T14:46:54.959Z,34.60
2019-06-01T14:49:22.097Z,34.48
2019-06-01T14:51:55.710Z,34.56
2019-06-01T14:54:28.035Z,33.98
2019-06-01T14:57:00.308Z,34.44
2019-06-01T14:59:32.564Z,34.73
2019-06-01T15:02:04.808Z,34.34
2019-06-01T15:04:37.118Z,34.83
2019-06-01T15:07:09.378Z,34.93
2019-06-01T15:09:41.600Z,35.18
2019-06-01T15:12:13.821Z,35.01
2019-06-01T15:14:46.121Z,35.35
2019-06-01T15:17:18.331Z,34.15
2019-06-01T15:19:51.835Z,34.08
2019-06-01T15:22:24.180Z,34.30
2019-06-01T15:24:56.550Z,34.35
2019-06-01T15:27:28.929Z,34.75
2019-06-01T15:30:01.172Z,34.53
2019-06-01T15:32:33.487Z,35.86
2019-06-01T15:35:05.740Z,35.46
2019-06-01T15:37:37.969Z,35.48
2019-06-01T15:40:10.185Z,36.93
2019-06-01T15:42:44.478Z,37.21
2019-06-01T15:45:16.674Z,37.85
2019-06-01T15:47:48.949Z,37.72
2019-06-01T15:50:21.230Z,38.39
2019-06-01T15:52:54.853Z,38.26
2019-06-01T15:55:27.450Z,38.39
2019-06-01T15:58:03.010Z,38.67
2019-06-01T16:00:35.462Z,39.02
2019-06-01T16:03:07.652Z,39.02
2019-06-01T16:05:39.885Z,39.31
2019-06-01T16:08:12.226Z,37.79
2019-06-01T16:10:44.450Z,36.53
2019-06-01T16:13:16.693Z,36.48
2019-06-01T16:15:48.961Z,37.33
2019-06-01T16:18:21.294Z,37.92
2019-06-01T16:20:56.005Z,38.02
2019-06-01T16:23:28.336Z,38.79
2019-06-01T16:26:11.091Z,37.85
2019-06-01T16:28:34.585Z,38.32
2019-06-01T16:31:06.889Z,38.41
2019-06-01T16:33:39.162Z,38.06
2019-06-01T16:36:11.483Z,38.40
2019-06-01T16:38:43.714Z,37.47
2019-06-01T16:41:16.010Z,38.05
2019-06-01T16:43:48.337Z,38.51
2019-06-01T16:46:22.633Z,38.31
2019-06-01T16:48:55.465Z,38.64
2019-06-01T16:51:27.792Z,38.03
2019-06-01T16:54:01.807Z,38.73
2019-06-01T16:56:35.021Z,36.90
2019-06-01T16:59:07.813Z,35.30
2019-06-01T17:01:40.657Z,32.47
2019-06-01T17:04:13.463Z,31.50
2019-06-01T17:06:46.288Z,30.88
2019-06-01T17:09:19.110Z,29.72
2019-06-01T17:11:51.968Z,28.56
2019-06-01T17:14:24.765Z,28.53
2019-06-01T17:16:58.719Z,28.53
2019-06-01T17:19:31.848Z,27.59
2019-06-01T17:22:05.609Z,28.49
2019-06-01T17:24:38.922Z,29.77
2019-06-01T17:27:12.047Z,30.99
2019-06-01T17:29:44.893Z,31.04
2019-06-01T17:32:24.191Z,32.50
2019-06-01T17:34:52.245Z,34.03
2019-06-01T17:37:25.096Z,35.42
2019-06-01T17:39:57.934Z,36.27
2019-06-01T17:42:30.813Z,36.51
2019-06-01T17:45:04.699Z,36.94
2019-06-01T17:47:40.983Z,38.00
2019-06-01T17:50:11.869Z,37.89
2019-06-01T17:52:45.524Z,38.31
2019-06-01T17:55:17.747Z,38.22
2019-06-01T17:57:49.992Z,38.83
2019-06-01T18:00:22.210Z,39.84
2019-06-01T18:02:54.555Z,40.30
2019-06-01T18:05:27.040Z,40.95
2019-06-01T18:07:59.251Z,41.68
2019-06-01T18:10:31.468Z,41.79
2019-06-01T18:13:06.240Z,42.43
2019-06-01T18:15:38.813Z,43.20
2019-06-01T18:18:12.621Z,43.45
2019-06-01T18:20:45.182Z,43.81
2019-06-01T18:23:17.452Z,44.12
2019-06-01T18:25:49.665Z,44.40
2019-06-01T18:28:22.026Z,44.85
2019-06-01T18:30:54.402Z,45.16
2019-06-01T18:33:26.636Z,45.26
2019-06-01T18:35:58.883Z,45.27
2019-06-01T18:38:31.261Z,45.16
2019-06-01T18:41:10.722Z,45.33
2019-06-01T18:43:39.438Z,45.96
2019-06-01T18:46:12.280Z,46.13
2019-06-01T18:48:44.627Z,46.59
2019-06-01T18:51:17.107Z,46.37
2019-06-01T18:53:51.518Z,46.72
2019-06-01T18:56:23.960Z,47.04
2019-06-01T18:58:56.189Z,47.45
2019-06-01T19:01:28.411Z,47.68
2019-06-01T19:04:01.561Z,48.12
2019-06-01T19:06:34.009Z,48.50
2019-06-01T19:09:07.205Z,48.70
2019-06-01T19:11:39.570Z,48.62
2019-06-01T19:14:12.017Z,49.33
2019-06-01T19:16:44.216Z,49.35
2019-06-01T19:19:17.628Z,49.60
2019-06-01T19:21:53.354Z,49.88
2019-06-01T19:24:25.693Z,50.51
2019-06-01T19:26:57.905Z,51.12
2019-06-01T19:29:33.103Z,51.36
2019-06-01T19:32:06.751Z,51.90
2019-06-01T19:34:39.166Z,51.91
2019-06-01T19:37:12.865Z,52.02
2019-06-01T19:39:45.494Z,52.59
2019-06-01T19:42:17.842Z,52.87
2019-06-01T19:44:50.234Z,53.00
2019-06-01T19:47:22.558Z,53.58
2019-06-01T19:49:54.785Z,53.52
2019-06-01T19:52:27.211Z,53.67
2019-06-01T19:54:59.517Z,53.89
2019-06-01T19:57:31.731Z,53.89
2019-06-01T20:00:03.949Z,53.76
2019-06-01T20:02:37.483Z,54.35
2019-06-01T20:05:10.519Z,54.67
2019-06-01T20:07:43.006Z,54.27
2019-06-01T20:10:18.493Z,54.43
2019-06-01T20:12:52.728Z,54.72
2019-06-01T20:15:26.666Z,55.00
2019-06-01T20:17:59.861Z,55.15
2019-06-01T20:20:32.139Z,55.82
2019-06-01T20:23:04.521Z,55.95
2019-06-01T20:25:36.821Z,56.06
2019-06-01T20:28:09.244Z,56.23
2019-06-01T20:30:41.557Z,56.48
2019-06-01T20:33:14.111Z,56.39
2019-06-01T20:35:46.402Z,56.39
2019-06-01T20:38:18.836Z,56.12
2019-06-01T20:40:50.996Z,56.68
2019-06-01T20:43:28.768Z,57.22
2019-06-01T20:46:01.447Z,57.22
2019-06-01T20:48:34.684Z,57.41
2019-06-01T20:51:07.031Z,57.31
2019-06-01T20:53:39.358Z,57.73
2019-06-01T20:56:13.151Z,57.73
2019-06-01T20:58:47.041Z,57.97
2019-06-01T21:01:19.721Z,57.58
2019-06-01T21:03:51.983Z,57.64
2019-06-01T21:06:24.456Z,57.79
2019-06-01T21:08:56.713Z,57.69
2019-06-01T21:11:28.974Z,57.73
2019-06-01T21:14:01.446Z,57.81
2019-06-01T21:16:33.662Z,58.25
2019-06-01T21:19:05.971Z,58.45
2019-06-01T21:21:38.262Z,58.47
2019-06-01T21:24:10.500Z,58.54
2019-06-01T21:26:42.758Z,58.89
2019-06-01T21:29:15.147Z,58.83
2019-06-01T21:31:47.353Z,58.64
2019-06-01T21:34:20.985Z,58.81
2019-06-01T21:36:53.591Z,58.89
2019-06-01T21:39:25.839Z,59.00
2019-06-01T21:41:58.771Z,58.85
2019-06-01T21:44:31.400Z,58.71
2019-06-01T21:47:03.661Z,58.76
2019-06-01T21:49:38.236Z,58.56
2019-06-01T21:52:10.511Z,58.77
2019-06-01T21:54:42.747Z,58.50
2019-06-01T21:57:16.013Z,58.51
2019-06-01T21:59:48.355Z,58.56
2019-06-01T22:02:21.061Z,58.97
2019-06-01T22:04:53.411Z,58.68
2019-06-01T22:07:27.423Z,58.53
2019-06-01T22:09:59.813Z,58.45
2019-06-01T22:12:32.063Z,58.67
2019-06-01T22:15:04.361Z,58.77
2019-06-01T22:17:37.893Z,58.52
2019-06-01T22:20:10.358Z,58.45
2019-06-01T22:22:42.532Z,58.54
2019-06-01T22:25:14.786Z,58.49
2019-06-01T22:27:47.009Z,58.68
2019-06-01T22:30:20.314Z,58.82
2019-06-01T22:32:52.700Z,58.73
2019-06-01T22:35:24.978Z,58.86
2019-06-01T22:37:58.228Z,58.92
2019-06-01T22:40:32.541Z,59.08
2019-06-01T22:43:04.753Z,59.38
2019-06-01T22:45:37.043Z,59.45
2019-06-01T22:48:09.236Z,59.47
2019-06-01T22:50:41.469Z,59.69
2019-06-01T22:53:13.743Z,59.74
2019-06-01T22:55:45.969Z,59.72
2019-06-01T22:58:21.226Z,59.35
2019-06-01T23:00:54.621Z,59.68
2019-06-01T23:03:27.971Z,59.15
2019-06-01T23:06:00.378Z,59.24
2019-06-01T23:08:32.581Z,59.22
2019-06-01T23:11:04.799Z,59.32
2019-06-01T23:13:52.411Z,59.29
2019-06-01T23:16:10.908Z,59.41
2019-06-01T23:18:43.182Z,59.48
2019-06-01T23:21:15.434Z,59.53
2019-06-01T23:23:47.635Z,59.73
2019-06-01T23:26:19.895Z,59.82
2019-06-01T23:28:52.103Z,59.87
2019-06-01T23:31:24.371Z,59.98
2019-06-01T23:33:56.553Z,60.08
2019-06-01T23:36:29.029Z,59.84
2019-06-01T23:39:01.444Z,59.79
2019-06-01T23:41:37.046Z,59.90
2019-06-01T23:44:12.134Z,59.77
2019-06-01T23:46:44.362Z,59.81
2019-06-01T23:49:17.677Z,59.87
2019-06-01T23:51:49.896Z,59.86
2019-06-01T23:54:23.385Z,60.15
2019-06-01T23:56:55.812Z,60.03
2019-06-01T23:59:29.563Z,59.99
